sensor_id;sensor_type;location;lat;lon;timestamp;pressure;altitude;pressure_sealevel;temperature;humidity
7168;BME280;3625;51.762;14.320;2023-05-23T00:02:00;100262.97;;;15.79;67.79
7168;BME280;3625;51.762;14.320;2023-05-23T00:04:30;100258.56;;;15.78;67.23
7168;BME280;3625;51.762;14.320;2023-05-23T00:06:59;100222.31;;;15.56;66.39
7168;BME280;3625;51.762;14.320;2023-05-23T00:09:28;100251.78;;;15.71;66.41
7168;BME280;3625;51.762;14.320;2023-05-23T00:11:56;100247.16;;;15.75;66.53
7168;BME280;3625;51.762;14.320;2023-05-23T00:14:25;100248.88;;;15.76;66.71
7168;BME280;3625;51.762;14.320;2023-05-23T00:16:54;100250.78;;;15.74;66.28
7168;BME280;3625;51.762;14.320;2023-05-23T00:19:24;100250.19;;;15.67;65.98
7168;BME280;3625;51.762;14.320;2023-05-23T00:21:54;100255.75;;;15.63;66.20
7168;BME280;3625;51.762;14.320;2023-05-23T00:24:25;100255.94;;;15.58;66.48
7168;BME280;3625;51.762;14.320;2023-05-23T00:26:54;100227.28;;;15.43;66.33
7168;BME280;3625;51.762;14.320;2023-05-23T00:29:22;100256.09;;;15.55;66.99
7168;BME280;3625;51.762;14.320;2023-05-23T00:31:51;100253.53;;;15.52;67.53
7168;BME280;3625;51.762;14.320;2023-05-23T00:34:19;100253.00;;;15.44;67.20
7168;BME280;3625;51.762;14.320;2023-05-23T00:36:48;100247.16;;;15.36;67.33
7168;BME280;3625;51.762;14.320;2023-05-23T00:39:18;100209.34;;;15.07;67.63
7168;BME280;3625;51.762;14.320;2023-05-23T00:41:49;100232.63;;;15.23;68.01
7168;BME280;3625;51.762;14.320;2023-05-23T00:44:19;100151.44;;;14.72;68.16
7168;BME280;3625;51.762;14.320;2023-05-23T00:46:53;100231.34;;;15.13;68.65
7168;BME280;3625;51.762;14.320;2023-05-23T00:49:24;100209.69;;;15.00;69.88
7168;BME280;3625;51.762;14.320;2023-05-23T00:51:54;100220.28;;;15.01;69.40
7168;BME280;3625;51.762;14.320;2023-05-23T00:54:29;100225.91;;;14.95;69.73
7168;BME280;3625;51.762;14.320;2023-05-23T00:56:59;100158.72;;;14.48;69.60
7168;BME280;3625;51.762;14.320;2023-05-23T00:59:29;100225.63;;;14.81;70.40
7168;BME280;3625;51.762;14.320;2023-05-23T01:01:59;100193.84;;;14.56;71.14
7168;BME280;3625;51.762;14.320;2023-05-23T01:04:28;100224.28;;;14.71;71.54
7168;BME280;3625;51.762;14.320;2023-05-23T01:07:00;100228.81;;;14.69;71.50
7168;BME280;3625;51.762;14.320;2023-05-23T01:09:31;100233.41;;;14.65;71.42
7168;BME280;3625;51.762;14.320;2023-05-23T01:12:17;100200.38;;;14.49;71.23
7168;BME280;3625;51.762;14.320;2023-05-23T01:15:03;100224.00;;;14.57;70.96
7168;BME280;3625;51.762;14.320;2023-05-23T01:17:44;100223.19;;;14.55;71.25
7168;BME280;3625;51.762;14.320;2023-05-23T01:20:23;100232.97;;;14.54;71.34
7168;BME280;3625;51.762;14.320;2023-05-23T01:23:23;100222.22;;;14.57;71.07
7168;BME280;3625;51.762;14.320;2023-05-23T01:26:12;100164.28;;;14.20;71.38
7168;BME280;3625;51.762;14.320;2023-05-23T01:28:54;100227.53;;;14.57;71.07
7168;BME280;3625;51.762;14.320;2023-05-23T01:31:26;100202.50;;;14.41;71.26
7168;BME280;3625;51.762;14.320;2023-05-23T01:33:57;100229.59;;;14.51;71.82
7168;BME280;3625;51.762;14.320;2023-05-23T01:36:26;100220.69;;;14.52;72.88
7168;BME280;3625;51.762;14.320;2023-05-23T01:38:54;100222.41;;;14.53;72.63
7168;BME280;3625;51.762;14.320;2023-05-23T01:41:23;100211.84;;;14.51;72.79
7168;BME280;3625;51.762;14.320;2023-05-23T01:43:53;100222.41;;;14.53;72.93
7168;BME280;3625;51.762;14.320;2023-05-23T01:46:24;100212.75;;;14.50;72.76
7168;BME280;3625;51.762;14.320;2023-05-23T01:48:56;100211.09;;;14.48;72.93
7168;BME280;3625;51.762;14.320;2023-05-23T01:51:25;100210.03;;;14.52;73.11
7168;BME280;3625;51.762;14.320;2023-05-23T01:53:56;100206.97;;;14.61;73.48
7168;BME280;3625;51.762;14.320;2023-05-23T01:56:27;100153.03;;;14.35;73.34
7168;BME280;3625;51.762;14.320;2023-05-23T01:58:58;100208.00;;;14.79;73.04
7168;BME280;3625;51.762;14.320;2023-05-23T02:01:28;100204.78;;;14.91;72.88
7168;BME280;3625;51.762;14.320;2023-05-23T02:03:57;100197.19;;;15.02;73.32
7168;BME280;3625;51.762;14.320;2023-05-23T02:06:26;100200.38;;;15.10;73.49
7168;BME280;3625;51.762;14.320;2023-05-23T02:08:54;100196.63;;;15.14;73.38
7168;BME280;3625;51.762;14.320;2023-05-23T02:11:23;100202.69;;;15.18;72.83
7168;BME280;3625;51.762;14.320;2023-05-23T02:13:53;100194.56;;;15.21;72.34
7168;BME280;3625;51.762;14.320;2023-05-23T02:16:22;100195.19;;;15.26;72.00
7168;BME280;3625;51.762;14.320;2023-05-23T02:18:52;100196.81;;;15.30;71.90
7168;BME280;3625;51.762;14.320;2023-05-23T02:21:22;100189.59;;;15.32;71.60
7168;BME280;3625;51.762;14.320;2023-05-23T02:23:51;100195.78;;;15.32;71.68
7168;BME280;3625;51.762;14.320;2023-05-23T02:26:20;100125.25;;;15.02;71.66
7168;BME280;3625;51.762;14.320;2023-05-23T02:28:49;100171.03;;;15.30;71.39
7168;BME280;3625;51.762;14.320;2023-05-23T02:31:18;100177.41;;;15.26;71.62
7168;BME280;3625;51.762;14.320;2023-05-23T02:33:49;100173.88;;;15.26;71.89
7168;BME280;3625;51.762;14.320;2023-05-23T02:36:17;100168.56;;;15.26;72.44
7168;BME280;3625;51.762;14.320;2023-05-23T02:38:46;100165.09;;;15.24;72.51
7168;BME280;3625;51.762;14.320;2023-05-23T02:41:14;100044.91;;;14.53;72.51
7168;BME280;3625;51.762;14.320;2023-05-23T02:43:45;100161.78;;;15.19;72.48
7168;BME280;3625;51.762;14.320;2023-05-23T02:46:16;100161.09;;;15.14;72.60
7168;BME280;3625;51.762;14.320;2023-05-23T02:48:44;100154.94;;;15.13;72.57
7168;BME280;3625;51.762;14.320;2023-05-23T02:51:14;100143.75;;;15.05;73.01
7168;BME280;3625;51.762;14.320;2023-05-23T02:53:43;100158.31;;;15.17;72.73
7168;BME280;3625;51.762;14.320;2023-05-23T02:56:12;100152.84;;;15.20;72.81
7168;BME280;3625;51.762;14.320;2023-05-23T02:58:41;100159.06;;;15.20;72.61
7168;BME280;3625;51.762;14.320;2023-05-23T03:01:10;100106.28;;;14.89;72.56
7168;BME280;3625;51.762;14.320;2023-05-23T03:03:39;100161.41;;;15.26;72.71
7168;BME280;3625;51.762;14.320;2023-05-23T03:06:08;100163.97;;;15.29;72.94
7168;BME280;3625;51.762;14.320;2023-05-23T03:08:42;100168.25;;;15.32;72.67
7168;BME280;3625;51.762;14.320;2023-05-23T03:11:12;100176.94;;;15.37;72.89
7168;BME280;3625;51.762;14.320;2023-05-23T03:13:43;100175.81;;;15.41;72.66
7168;BME280;3625;51.762;14.320;2023-05-23T03:16:11;100175.69;;;15.44;72.50
7168;BME280;3625;51.762;14.320;2023-05-23T03:18:40;100167.56;;;15.47;72.58
7168;BME280;3625;51.762;14.320;2023-05-23T03:21:08;100172.75;;;15.50;72.65
7168;BME280;3625;51.762;14.320;2023-05-23T03:23:37;100176.19;;;15.52;72.32
7168;BME280;3625;51.762;14.320;2023-05-23T03:26:07;100172.59;;;15.53;72.47
7168;BME280;3625;51.762;14.320;2023-05-23T03:28:35;100167.25;;;15.55;72.39
7168;BME280;3625;51.762;14.320;2023-05-23T03:31:04;100170.72;;;15.57;72.53
7168;BME280;3625;51.762;14.320;2023-05-23T03:33:33;100169.75;;;15.58;72.35
7168;BME280;3625;51.762;14.320;2023-05-23T03:36:04;100096.81;;;15.21;72.34
7168;BME280;3625;51.762;14.320;2023-05-23T03:38:33;100147.41;;;15.60;72.73
7168;BME280;3625;51.762;14.320;2023-05-23T03:41:01;100149.06;;;15.63;72.87
7168;BME280;3625;51.762;14.320;2023-05-23T03:43:33;100149.88;;;15.65;72.95
7168;BME280;3625;51.762;14.320;2023-05-23T03:46:01;100152.44;;;15.66;73.11
7168;BME280;3625;51.762;14.320;2023-05-23T03:48:30;100109.78;;;15.47;73.09
7168;BME280;3625;51.762;14.320;2023-05-23T03:51:00;100149.50;;;15.72;73.27
7168;BME280;3625;51.762;14.320;2023-05-23T03:53:30;100156.56;;;15.73;73.69
7168;BME280;3625;51.762;14.320;2023-05-23T03:56:02;100123.47;;;15.59;73.70
7168;BME280;3625;51.762;14.320;2023-05-23T03:58:32;100030.28;;;15.01;73.81
7168;BME280;3625;51.762;14.320;2023-05-23T04:01:11;100160.34;;;15.87;73.79
7168;BME280;3625;51.762;14.320;2023-05-23T04:03:54;100166.31;;;15.92;74.11
7168;BME280;3625;51.762;14.320;2023-05-23T04:06:44;100163.81;;;15.89;74.43
7168;BME280;3625;51.762;14.320;2023-05-23T04:09:15;100159.56;;;15.84;74.72
7168;BME280;3625;51.762;14.320;2023-05-23T04:11:46;100085.00;;;15.27;76.00
7168;BME280;3625;51.762;14.320;2023-05-23T04:14:20;100169.03;;;15.73;78.81
7168;BME280;3625;51.762;14.320;2023-05-23T04:16:50;100161.75;;;15.58;80.20
7168;BME280;3625;51.762;14.320;2023-05-23T04:19:18;100180.84;;;15.67;81.32
7168;BME280;3625;51.762;14.320;2023-05-23T04:21:47;100172.91;;;15.66;83.17
7168;BME280;3625;51.762;14.320;2023-05-23T04:24:17;100183.66;;;15.64;85.35
7168;BME280;3625;51.762;14.320;2023-05-23T04:26:45;100085.22;;;15.03;85.72
7168;BME280;3625;51.762;14.320;2023-05-23T04:29:14;100178.47;;;15.61;90.27
7168;BME280;3625;51.762;14.320;2023-05-23T04:31:44;100183.06;;;15.58;95.20
7168;BME280;3625;51.762;14.320;2023-05-23T04:34:13;100189.59;;;15.51;94.04
7168;BME280;3625;51.762;14.320;2023-05-23T04:36:43;100176.34;;;15.49;93.55
7168;BME280;3625;51.762;14.320;2023-05-23T04:39:13;100192.09;;;15.55;92.73
7168;BME280;3625;51.762;14.320;2023-05-23T04:41:56;100193.59;;;15.61;93.33
7168;BME280;3625;51.762;14.320;2023-05-23T04:44:44;100196.84;;;15.67;94.18
7168;BME280;3625;51.762;14.320;2023-05-23T04:47:19;100201.97;;;15.72;93.53
7168;BME280;3625;51.762;14.320;2023-05-23T04:49:54;100189.44;;;15.74;96.44
7168;BME280;3625;51.762;14.320;2023-05-23T04:52:23;100181.50;;;15.72;99.37
7168;BME280;3625;51.762;14.320;2023-05-23T04:54:53;100188.84;;;15.67;96.86
7168;BME280;3625;51.762;14.320;2023-05-23T04:57:22;100186.25;;;15.66;96.92
7168;BME280;3625;51.762;14.320;2023-05-23T04:59:51;100175.66;;;15.64;96.38
7168;BME280;3625;51.762;14.320;2023-05-23T05:02:21;100178.22;;;15.66;96.97
7168;BME280;3625;51.762;14.320;2023-05-23T05:04:49;100176.38;;;15.68;97.74
7168;BME280;3625;51.762;14.320;2023-05-23T05:07:18;100172.69;;;15.70;97.82
7168;BME280;3625;51.762;14.320;2023-05-23T05:09:47;100168.59;;;15.63;97.26
7168;BME280;3625;51.762;14.320;2023-05-23T05:12:16;100180.66;;;15.52;100.00
7168;BME280;3625;51.762;14.320;2023-05-23T05:14:45;100174.47;;;15.51;100.00
7168;BME280;3625;51.762;14.320;2023-05-23T05:17:13;100154.78;;;15.55;100.00
7168;BME280;3625;51.762;14.320;2023-05-23T05:20:06;100137.16;;;15.51;100.00
7168;BME280;3625;51.762;14.320;2023-05-23T05:22:38;100174.25;;;15.93;100.00
7168;BME280;3625;51.762;14.320;2023-05-23T05:25:10;100176.69;;;16.16;100.00
7168;BME280;3625;51.762;14.320;2023-05-23T05:27:39;100170.97;;;16.41;99.01
7168;BME280;3625;51.762;14.320;2023-05-23T05:30:11;100163.91;;;16.75;97.35
7168;BME280;3625;51.762;14.320;2023-05-23T05:32:54;100182.75;;;17.22;95.82
7168;BME280;3625;51.762;14.320;2023-05-23T05:35:25;100189.13;;;17.52;94.28
7168;BME280;3625;51.762;14.320;2023-05-23T05:37:54;100192.13;;;17.79;92.16
7168;BME280;3625;51.762;14.320;2023-05-23T05:40:23;100143.50;;;17.55;92.95
7168;BME280;3625;51.762;14.320;2023-05-23T05:42:51;100185.19;;;17.75;92.51
7168;BME280;3625;51.762;14.320;2023-05-23T05:45:21;100197.53;;;17.93;92.12
7168;BME280;3625;51.762;14.320;2023-05-23T05:47:50;100196.50;;;18.12;91.07
7168;BME280;3625;51.762;14.320;2023-05-23T05:50:21;100196.41;;;18.13;90.54
7168;BME280;3625;51.762;14.320;2023-05-23T05:52:50;100193.03;;;18.09;90.89
7168;BME280;3625;51.762;14.320;2023-05-23T05:55:19;100185.44;;;18.18;90.74
7168;BME280;3625;51.762;14.320;2023-05-23T05:57:59;100185.84;;;18.26;89.70
7168;BME280;3625;51.762;14.320;2023-05-23T06:00:34;100182.81;;;18.32;89.36
7168;BME280;3625;51.762;14.320;2023-05-23T06:03:09;100179.78;;;18.38;88.94
7168;BME280;3625;51.762;14.320;2023-05-23T06:05:50;100181.13;;;18.45;88.56
7168;BME280;3625;51.762;14.320;2023-05-23T06:08:22;100185.00;;;18.55;87.69
7168;BME280;3625;51.762;14.320;2023-05-23T06:10:50;100177.72;;;18.73;87.14
7168;BME280;3625;51.762;14.320;2023-05-23T06:13:25;100086.91;;;18.38;85.96
7168;BME280;3625;51.762;14.320;2023-05-23T06:15:53;100184.94;;;19.01;85.15
7168;BME280;3625;51.762;14.320;2023-05-23T06:18:23;100182.56;;;19.10;85.16
7168;BME280;3625;51.762;14.320;2023-05-23T06:20:52;100164.06;;;19.20;85.28
7168;BME280;3625;51.762;14.320;2023-05-23T06:23:22;100145.00;;;19.39;84.35
7168;BME280;3625;51.762;14.320;2023-05-23T06:25:51;100186.06;;;19.82;83.19
7168;BME280;3625;51.762;14.320;2023-05-23T06:28:20;100194.13;;;19.96;82.54
7168;BME280;3625;51.762;14.320;2023-05-23T06:30:48;100199.28;;;19.99;82.05
7168;BME280;3625;51.762;14.320;2023-05-23T06:33:17;100199.78;;;19.91;82.29
7168;BME280;3625;51.762;14.320;2023-05-23T06:35:48;100200.84;;;19.89;82.48
7168;BME280;3625;51.762;14.320;2023-05-23T06:38:16;100200.19;;;19.85;82.58
7168;BME280;3625;51.762;14.320;2023-05-23T06:40:46;100193.84;;;19.86;83.25
7168;BME280;3625;51.762;14.320;2023-05-23T06:43:15;100191.53;;;19.94;83.14
7168;BME280;3625;51.762;14.320;2023-05-23T06:45:46;100191.69;;;20.06;83.13
7168;BME280;3625;51.762;14.320;2023-05-23T06:48:15;100194.22;;;20.21;82.50
7168;BME280;3625;51.762;14.320;2023-05-23T06:50:45;100130.72;;;19.93;81.62
7168;BME280;3625;51.762;14.320;2023-05-23T06:53:14;100203.03;;;20.38;81.48
7168;BME280;3625;51.762;14.320;2023-05-23T06:55:47;100193.28;;;20.49;81.08
7168;BME280;3625;51.762;14.320;2023-05-23T06:58:21;100185.75;;;20.54;80.54
7168;BME280;3625;51.762;14.320;2023-05-23T07:00:52;100190.41;;;20.78;80.53
7168;BME280;3625;51.762;14.320;2023-05-23T07:03:24;100117.41;;;20.71;79.77
7168;BME280;3625;51.762;14.320;2023-05-23T07:05:58;100195.88;;;21.41;78.34
7168;BME280;3625;51.762;14.320;2023-05-23T07:08:27;100199.19;;;21.57;77.15
7168;BME280;3625;51.762;14.320;2023-05-23T07:11:02;100207.03;;;21.60;75.24
7168;BME280;3625;51.762;14.320;2023-05-23T07:13:36;100205.97;;;21.50;74.94
7168;BME280;3625;51.762;14.320;2023-05-23T07:16:05;100206.19;;;21.47;75.01
7168;BME280;3625;51.762;14.320;2023-05-23T07:18:39;100199.66;;;21.26;75.72
7168;BME280;3625;51.762;14.320;2023-05-23T07:21:08;100191.78;;;21.23;77.25
7168;BME280;3625;51.762;14.320;2023-05-23T07:23:36;100194.28;;;21.26;77.12
7168;BME280;3625;51.762;14.320;2023-05-23T07:26:06;100196.31;;;21.35;77.11
7168;BME280;3625;51.762;14.320;2023-05-23T07:28:44;100199.28;;;21.56;76.41
7168;BME280;3625;51.762;14.320;2023-05-23T07:31:13;100207.97;;;21.72;75.63
7168;BME280;3625;51.762;14.320;2023-05-23T07:33:43;100197.44;;;21.69;74.84
7168;BME280;3625;51.762;14.320;2023-05-23T07:36:18;100219.41;;;21.75;74.74
7168;BME280;3625;51.762;14.320;2023-05-23T07:38:48;100209.13;;;21.80;74.68
7168;BME280;3625;51.762;14.320;2023-05-23T07:41:18;100193.28;;;22.01;74.41
7168;BME280;3625;51.762;14.320;2023-05-23T07:43:48;100227.03;;;22.54;71.96
7168;BME280;3625;51.762;14.320;2023-05-23T07:46:16;100221.44;;;22.69;66.85
7168;BME280;3625;51.762;14.320;2023-05-23T07:48:45;100151.78;;;22.28;65.26
7168;BME280;3625;51.762;14.320;2023-05-23T07:51:13;100220.44;;;22.82;65.60
7168;BME280;3625;51.762;14.320;2023-05-23T07:53:50;100208.72;;;23.28;64.73
7168;BME280;3625;51.762;14.320;2023-05-23T07:56:23;100220.34;;;23.52;63.68
7168;BME280;3625;51.762;14.320;2023-05-23T07:58:54;100199.06;;;23.25;63.67
7168;BME280;3625;51.762;14.320;2023-05-23T08:01:23;100223.56;;;23.11;64.79
7168;BME280;3625;51.762;14.320;2023-05-23T08:03:58;100217.59;;;22.60;65.78
7168;BME280;3625;51.762;14.320;2023-05-23T08:06:31;100209.56;;;22.24;67.12
7168;BME280;3625;51.762;14.320;2023-05-23T08:09:04;100224.59;;;22.15;66.86
7168;BME280;3625;51.762;14.320;2023-05-23T08:11:39;100233.13;;;22.09;67.47
7168;BME280;3625;51.762;14.320;2023-05-23T08:14:08;100233.31;;;22.18;67.96
7168;BME280;3625;51.762;14.320;2023-05-23T08:16:37;100237.16;;;22.51;67.73
7168;BME280;3625;51.762;14.320;2023-05-23T08:19:14;100231.47;;;22.67;65.74
7168;BME280;3625;51.762;14.320;2023-05-23T08:21:44;100249.03;;;22.96;65.24
7168;BME280;3625;51.762;14.320;2023-05-23T08:24:13;100251.22;;;23.26;60.96
7168;BME280;3625;51.762;14.320;2023-05-23T08:26:44;100243.53;;;23.66;59.83
7168;BME280;3625;51.762;14.320;2023-05-23T08:29:14;100233.44;;;23.90;53.54
7168;BME280;3625;51.762;14.320;2023-05-23T08:31:44;100256.13;;;24.32;53.36
7168;BME280;3625;51.762;14.320;2023-05-23T08:34:13;100258.16;;;24.62;52.46
7168;BME280;3625;51.762;14.320;2023-05-23T08:36:42;100264.31;;;24.64;50.75
7168;BME280;3625;51.762;14.320;2023-05-23T08:39:15;100243.47;;;24.44;49.95
7168;BME280;3625;51.762;14.320;2023-05-23T08:41:55;100259.97;;;24.19;52.04
7168;BME280;3625;51.762;14.320;2023-05-23T08:44:24;100252.63;;;23.76;53.09
7168;BME280;3625;51.762;14.320;2023-05-23T08:47:02;100237.56;;;23.16;54.80
7168;BME280;3625;51.762;14.320;2023-05-23T08:49:55;100244.56;;;22.60;55.78
7168;BME280;3625;51.762;14.320;2023-05-23T08:52:29;100239.56;;;22.19;57.66
7168;BME280;3625;51.762;14.320;2023-05-23T08:55:00;100210.63;;;21.97;58.30
7168;BME280;3625;51.762;14.320;2023-05-23T08:57:33;100251.59;;;22.39;56.43
7168;BME280;3625;51.762;14.320;2023-05-23T09:00:20;100242.78;;;22.72;55.64
7168;BME280;3625;51.762;14.320;2023-05-23T09:02:49;100258.44;;;22.67;55.24
7168;BME280;3625;51.762;14.320;2023-05-23T09:08:08;100248.88;;;22.86;54.55
7168;BME280;3625;51.762;14.320;2023-05-23T09:10:37;100259.31;;;23.26;54.24
7168;BME280;3625;51.762;14.320;2023-05-23T09:13:11;100260.84;;;23.75;52.26
7168;BME280;3625;51.762;14.320;2023-05-23T09:15:56;100265.34;;;24.41;49.79
7168;BME280;3625;51.762;14.320;2023-05-23T09:18:33;100276.09;;;25.06;47.01
7168;BME280;3625;51.762;14.320;2023-05-23T09:21:08;100288.31;;;25.42;44.08
7168;BME280;3625;51.762;14.320;2023-05-23T09:23:43;100291.16;;;25.41;44.67
7168;BME280;3625;51.762;14.320;2023-05-23T09:26:14;100282.81;;;25.12;45.41
7168;BME280;3625;51.762;14.320;2023-05-23T09:28:44;100299.22;;;25.31;44.42
7168;BME280;3625;51.762;14.320;2023-05-23T09:31:14;100259.69;;;24.76;44.26
7168;BME280;3625;51.762;14.320;2023-05-23T09:33:45;100301.69;;;25.02;45.19
7168;BME280;3625;51.762;14.320;2023-05-23T09:36:16;100310.28;;;25.28;44.05
7168;BME280;3625;51.762;14.320;2023-05-23T09:38:46;100292.66;;;25.75;43.59
7168;BME280;3625;51.762;14.320;2023-05-23T09:41:15;100309.69;;;25.87;42.69
7168;BME280;3625;51.762;14.320;2023-05-23T09:43:53;100276.25;;;25.56;43.13
7168;BME280;3625;51.762;14.320;2023-05-23T09:46:27;100296.56;;;25.62;43.52
7168;BME280;3625;51.762;14.320;2023-05-23T09:48:56;100284.25;;;24.95;44.26
7168;BME280;3625;51.762;14.320;2023-05-23T09:51:26;100273.47;;;24.07;45.55
7168;BME280;3625;51.762;14.320;2023-05-23T09:53:55;100291.22;;;23.32;48.23
7168;BME280;3625;51.762;14.320;2023-05-23T09:56:25;100279.34;;;23.00;49.35
7168;BME280;3625;51.762;14.320;2023-05-23T09:58:58;100287.19;;;22.91;49.48
7168;BME280;3625;51.762;14.320;2023-05-23T10:01:31;100254.63;;;22.82;48.87
7168;BME280;3625;51.762;14.320;2023-05-23T10:04:02;100272.13;;;23.11;48.89
7168;BME280;3625;51.762;14.320;2023-05-23T10:06:40;100284.78;;;23.79;47.81
7168;BME280;3625;51.762;14.320;2023-05-23T10:09:13;100249.34;;;24.49;46.27
7168;BME280;3625;51.762;14.320;2023-05-23T10:15:14;100294.97;;;25.17;43.77
7168;BME280;3625;51.762;14.320;2023-05-23T10:18:04;100302.00;;;24.23;42.11
7168;BME280;3625;51.762;14.320;2023-05-23T10:20:38;100299.16;;;23.57;43.29
7168;BME280;3625;51.762;14.320;2023-05-23T10:23:07;100283.38;;;23.40;44.46
7168;BME280;3625;51.762;14.320;2023-05-23T10:25:36;100291.81;;;23.36;45.14
7168;BME280;3625;51.762;14.320;2023-05-23T10:28:05;100290.41;;;23.08;43.48
7168;BME280;3625;51.762;14.320;2023-05-23T10:30:37;100287.44;;;23.00;43.99
7168;BME280;3625;51.762;14.320;2023-05-23T10:33:07;100291.50;;;23.05;44.78
7168;BME280;3625;51.762;14.320;2023-05-23T10:35:52;100287.94;;;23.05;44.97
7168;BME280;3625;51.762;14.320;2023-05-23T10:38:31;100277.22;;;22.92;45.46
7168;BME280;3625;51.762;14.320;2023-05-23T10:41:10;100276.19;;;23.06;46.14
7168;BME280;3625;51.762;14.320;2023-05-23T10:43:48;100278.53;;;23.21;45.26
7168;BME280;3625;51.762;14.320;2023-05-23T10:46:20;100260.09;;;23.61;44.74
7168;BME280;3625;51.762;14.320;2023-05-23T10:48:54;100278.28;;;23.93;43.84
7168;BME280;3625;51.762;14.320;2023-05-23T10:51:24;100273.25;;;23.88;43.92
7168;BME280;3625;51.762;14.320;2023-05-23T10:53:53;100251.47;;;23.45;44.60
7168;BME280;3625;51.762;14.320;2023-05-23T10:56:23;100279.13;;;23.71;44.59
7168;BME280;3625;51.762;14.320;2023-05-23T10:58:55;100273.41;;;23.87;44.68
7168;BME280;3625;51.762;14.320;2023-05-23T11:01:26;100264.91;;;23.80;44.73
7168;BME280;3625;51.762;14.320;2023-05-23T11:03:55;100240.34;;;23.50;45.97
7168;BME280;3625;51.762;14.320;2023-05-23T11:06:32;100267.13;;;23.75;46.17
7168;BME280;3625;51.762;14.320;2023-05-23T11:09:05;100248.69;;;24.02;46.12
7168;BME280;3625;51.762;14.320;2023-05-23T11:11:54;100268.00;;;24.95;44.34
7168;BME280;3625;51.762;14.320;2023-05-23T11:17:32;100273.97;;;24.78;44.22
7168;BME280;3625;51.762;14.320;2023-05-23T11:20:04;100257.81;;;24.56;43.45
7168;BME280;3625;51.762;14.320;2023-05-23T11:22:35;100283.31;;;24.74;43.83
7168;BME280;3625;51.762;14.320;2023-05-23T11:25:07;100275.28;;;24.83;44.04
7168;BME280;3625;51.762;14.320;2023-05-23T11:27:38;100239.34;;;24.93;43.85
7168;BME280;3625;51.762;14.320;2023-05-23T11:30:10;100284.34;;;25.46;43.60
7168;BME280;3625;51.762;14.320;2023-05-23T11:32:49;100278.47;;;25.41;43.07
7168;BME280;3625;51.762;14.320;2023-05-23T11:35:19;100285.25;;;25.56;43.16
7168;BME280;3625;51.762;14.320;2023-05-23T11:37:48;100297.94;;;25.14;43.14
7168;BME280;3625;51.762;14.320;2023-05-23T11:40:29;100289.47;;;24.76;44.68
7168;BME280;3625;51.762;14.320;2023-05-23T11:43:01;100286.16;;;24.72;45.53
7168;BME280;3625;51.762;14.320;2023-05-23T11:45:31;100259.69;;;24.76;47.43
7168;BME280;3625;51.762;14.320;2023-05-23T11:48:06;100254.56;;;25.05;48.25
7168;BME280;3625;51.762;14.320;2023-05-23T11:50:44;100289.94;;;25.54;47.37
7168;BME280;3625;51.762;14.320;2023-05-23T11:53:13;100286.78;;;25.49;48.32
7168;BME280;3625;51.762;14.320;2023-05-23T11:55:48;100299.75;;;25.25;49.05
7168;BME280;3625;51.762;14.320;2023-05-23T11:58:20;100267.50;;;25.22;49.43
7168;BME280;3625;51.762;14.320;2023-05-23T12:00:49;100278.06;;;25.67;49.05
7168;BME280;3625;51.762;14.320;2023-05-23T12:03:22;100302.06;;;25.50;49.32
7168;BME280;3625;51.762;14.320;2023-05-23T12:05:53;100305.00;;;25.47;50.75
7168;BME280;3625;51.762;14.320;2023-05-23T12:08:22;100296.41;;;25.84;50.04
7168;BME280;3625;51.762;14.320;2023-05-23T12:10:52;100298.38;;;26.12;48.86
7168;BME280;3625;51.762;14.320;2023-05-23T12:13:24;100297.47;;;25.72;49.54
7168;BME280;3625;51.762;14.320;2023-05-23T12:15:54;100309.06;;;25.32;50.80
7168;BME280;3625;51.762;14.320;2023-05-23T12:18:28;100299.50;;;24.96;51.64
7168;BME280;3625;51.762;14.320;2023-05-23T12:20:59;100299.78;;;25.14;52.00
7168;BME280;3625;51.762;14.320;2023-05-23T12:23:29;100292.72;;;25.23;50.81
7168;BME280;3625;51.762;14.320;2023-05-23T12:26:04;100294.97;;;25.17;51.44
7168;BME280;3625;51.762;14.320;2023-05-23T12:28:39;100303.06;;;24.86;52.20
7168;BME280;3625;51.762;14.320;2023-05-23T12:31:10;100299.00;;;24.48;53.51
7168;BME280;3625;51.762;14.320;2023-05-23T12:33:44;100288.19;;;24.48;53.19
7168;BME280;3625;51.762;14.320;2023-05-23T12:36:24;100309.28;;;25.08;51.85
7168;BME280;3625;51.762;14.320;2023-05-23T12:39:02;100312.69;;;25.84;49.35
7168;BME280;3625;51.762;14.320;2023-05-23T12:41:32;100312.13;;;25.90;48.15
7168;BME280;3625;51.762;14.320;2023-05-23T12:44:02;100220.59;;;25.01;48.62
7168;BME280;3625;51.762;14.320;2023-05-23T12:46:30;100302.94;;;25.19;50.13
7168;BME280;3625;51.762;14.320;2023-05-23T12:49:00;100276.88;;;24.86;50.21
7168;BME280;3625;51.762;14.320;2023-05-23T12:51:29;100300.38;;;24.97;50.91
7168;BME280;3625;51.762;14.320;2023-05-23T12:53:58;100201.47;;;24.06;50.65
7168;BME280;3625;51.762;14.320;2023-05-23T12:56:26;100305.88;;;24.52;51.92
7168;BME280;3625;51.762;14.320;2023-05-23T12:58:55;100304.56;;;24.13;52.91
7168;BME280;3625;51.762;14.320;2023-05-23T13:01:23;100311.09;;;24.11;52.85
7168;BME280;3625;51.762;14.320;2023-05-23T13:03:52;100286.03;;;23.75;52.16
7168;BME280;3625;51.762;14.320;2023-05-23T13:06:22;100301.25;;;23.98;52.93
7168;BME280;3625;51.762;14.320;2023-05-23T13:08:50;100316.50;;;24.44;50.91
7168;BME280;3625;51.762;14.320;2023-05-23T13:11:20;100305.31;;;24.37;51.25
7168;BME280;3625;51.762;14.320;2023-05-23T13:13:50;100320.59;;;24.70;51.34
7168;BME280;3625;51.762;14.320;2023-05-23T13:16:18;100311.78;;;25.00;49.01
7168;BME280;3625;51.762;14.320;2023-05-23T13:18:47;100319.41;;;24.63;49.90
7168;BME280;3625;51.762;14.320;2023-05-23T13:21:16;100313.03;;;23.97;51.26
7168;BME280;3625;51.762;14.320;2023-05-23T13:23:45;100308.25;;;23.67;53.44
7168;BME280;3625;51.762;14.320;2023-05-23T13:26:14;100308.25;;;23.90;53.73
7168;BME280;3625;51.762;14.320;2023-05-23T13:28:42;100307.63;;;24.31;52.15
7168;BME280;3625;51.762;14.320;2023-05-23T13:31:11;100287.75;;;23.98;51.36
7168;BME280;3625;51.762;14.320;2023-05-23T13:33:39;100315.03;;;23.95;52.29